createdAt,value
2019-05-21T00:00:06.528Z,49.20
2019-05-21T00:02:34.795Z,49.87
2019-05-21T00:05:02.054Z,53.87
2019-05-21T00:07:29.355Z,60.20
2019-05-21T00:09:56.896Z,57.27
2019-05-21T00:12:23.989Z,64.10
2019-05-21T00:14:51.144Z,58.77
2019-05-21T00:17:18.250Z,55.60
2019-05-21T00:19:45.300Z,63.27
2019-05-21T00:22:12.371Z,64.97
2019-05-21T00:24:39.496Z,63.73
2019-05-21T00:27:07.728Z,59.87
2019-05-21T00:33:18.992Z,55.87
2019-05-21T00:36:24.810Z,51.53
2019-05-21T00:39:28.876Z,53.67
2019-05-21T00:42:04.109Z,64.67
2019-05-21T00:44:37.906Z,62.07
2019-05-21T00:47:07.216Z,69.27
2019-05-21T00:49:34.489Z,65.03
2019-05-21T00:52:08.181Z,66.23
2019-05-21T00:54:30.940Z,69.53
2019-05-21T00:56:57.988Z,60.60
2019-05-21T00:59:25.034Z,57.03
2019-05-21T01:01:52.092Z,55.27
2019-05-21T01:04:19.242Z,57.67
2019-05-21T01:06:46.332Z,56.93
2019-05-21T01:09:13.391Z,65.40
2019-05-21T01:11:40.442Z,56.83
2019-05-21T01:14:08.208Z,56.37
2019-05-21T01:16:35.263Z,60.63
2019-05-21T01:19:02.335Z,56.03
2019-05-21T01:21:29.493Z,67.13
2019-05-21T01:23:56.557Z,52.70
2019-05-21T01:26:24.047Z,58.37
2019-05-21T01:28:52.504Z,61.67
2019-05-21T01:31:19.561Z,60.23
2019-05-21T01:33:46.628Z,53.70
2019-05-21T01:36:13.683Z,53.37
2019-05-21T01:38:40.744Z,59.07
2019-05-21T01:41:07.796Z,50.20
2019-05-21T01:43:34.860Z,63.47
2019-05-21T01:46:01.924Z,63.43
2019-05-21T01:48:28.975Z,54.87
2019-05-21T01:50:56.132Z,60.70
2019-05-21T01:53:23.188Z,55.73
2019-05-21T01:55:50.288Z,56.80
2019-05-21T01:58:17.758Z,48.13
2019-05-21T02:00:45.176Z,50.77
2019-05-21T02:03:12.320Z,50.17
2019-05-21T02:05:39.383Z,50.57
2019-05-21T02:08:06.574Z,50.80
2019-05-21T02:10:33.717Z,57.10
2019-05-21T02:13:00.773Z,50.37
2019-05-21T02:15:27.827Z,51.07
2019-05-21T02:17:55.988Z,51.50
2019-05-21T02:20:23.036Z,48.60
2019-05-21T02:22:50.093Z,56.40
2019-05-21T02:25:17.460Z,50.03
2019-05-21T02:27:44.628Z,56.37
2019-05-21T02:30:16.051Z,40.23
2019-05-21T02:32:43.104Z,47.20
2019-05-21T02:35:10.377Z,46.40
2019-05-21T02:37:37.854Z,58.03
2019-05-21T02:40:07.225Z,56.50
2019-05-21T02:42:34.379Z,48.80
2019-05-21T02:45:01.550Z,46.17
2019-05-21T02:47:28.732Z,51.17
2019-05-21T02:49:56.161Z,49.13
2019-05-21T02:52:23.218Z,52.07
2019-05-21T02:54:50.387Z,53.30
2019-05-21T02:57:17.445Z,69.77
2019-05-21T02:59:46.401Z,57.20
2019-05-21T03:02:24.055Z,62.70
2019-05-21T03:04:51.134Z,57.53
2019-05-21T03:07:18.401Z,47.30
2019-05-21T03:09:46.956Z,40.90
2019-05-21T03:12:14.689Z,48.47
2019-05-21T03:14:41.739Z,51.63
2019-05-21T03:17:08.805Z,57.07
2019-05-21T03:19:36.130Z,46.57
2019-05-21T03:22:03.313Z,54.13
2019-05-21T03:24:30.399Z,43.47
2019-05-21T03:26:57.478Z,48.20
2019-05-21T03:29:24.537Z,45.93
2019-05-21T03:31:51.588Z,59.77
2019-05-21T03:34:18.751Z,56.57
2019-05-21T03:36:46.244Z,52.50
2019-05-21T03:39:13.292Z,48.67
2019-05-21T03:41:40.350Z,57.30
2019-05-21T03:44:07.512Z,46.80
2019-05-21T03:46:34.559Z,52.87
2019-05-21T03:49:01.826Z,64.60
2019-05-21T03:51:28.873Z,56.13
2019-05-21T03:53:55.937Z,61.37
2019-05-21T03:56:23.003Z,52.10
2019-05-21T03:58:50.069Z,59.47
2019-05-21T04:01:17.113Z,52.90
2019-05-21T04:03:44.176Z,55.83
2019-05-21T04:06:11.252Z,53.43
2019-05-21T04:08:38.322Z,40.10
2019-05-21T04:11:05.613Z,38.47
2019-05-21T04:13:32.785Z,44.53
2019-05-21T04:16:31.368Z,42.73
2019-05-21T04:19:02.797Z,35.33
2019-05-21T04:21:29.872Z,35.97
2019-05-21T04:23:56.945Z,37.27
2019-05-21T04:26:24.201Z,41.63
2019-05-21T04:28:51.255Z,37.47
2019-05-21T04:31:18.307Z,33.47
2019-05-21T04:33:45.369Z,33.47
2019-05-21T04:36:12.424Z,32.77
2019-05-21T04:38:39.493Z,31.17
2019-05-21T04:41:06.653Z,33.37
2019-05-21T04:43:33.714Z,30.50
2019-05-21T04:46:00.765Z,32.97
2019-05-21T04:48:28.024Z,28.17
2019-05-21T04:50:55.079Z,31.30
2019-05-21T04:53:22.240Z,33.00
2019-05-21T04:55:49.405Z,34.67
2019-05-21T04:58:16.460Z,34.87
2019-05-21T05:00:43.616Z,35.23
2019-05-21T05:03:10.672Z,33.17
2019-05-21T05:05:37.829Z,33.27
2019-05-21T05:08:04.981Z,36.97
2019-05-21T05:10:32.183Z,40.27
2019-05-21T05:12:59.318Z,34.53
2019-05-21T05:15:26.376Z,36.30
2019-05-21T05:17:53.463Z,33.37
2019-05-21T05:20:20.532Z,35.27
2019-05-21T05:22:47.593Z,33.50
2019-05-21T05:25:16.655Z,40.03
2019-05-21T05:27:43.715Z,41.33
2019-05-21T05:30:14.140Z,38.73
2019-05-21T05:32:41.306Z,36.13
2019-05-21T05:35:08.592Z,40.40
2019-05-21T05:37:44.144Z,45.63
2019-05-21T05:40:04.895Z,43.83
2019-05-21T05:42:31.944Z,39.47
2019-05-21T05:44:58.993Z,47.77
2019-05-21T05:47:26.081Z,51.43
2019-05-21T05:49:55.466Z,47.30
2019-05-21T05:52:22.553Z,46.07
2019-05-21T05:54:49.618Z,42.60
2019-05-21T05:57:16.674Z,40.07
2019-05-21T05:59:43.725Z,43.77
2019-05-21T06:02:10.898Z,41.57
2019-05-21T06:04:38.086Z,42.70
2019-05-21T06:07:05.350Z,40.33
2019-05-21T06:09:32.417Z,41.53
2019-05-21T06:11:59.567Z,38.03
2019-05-21T06:14:26.832Z,36.97
2019-05-21T06:16:53.901Z,37.60
2019-05-21T06:19:21.049Z,37.57
2019-05-21T06:21:48.216Z,43.77
2019-05-21T06:24:15.298Z,39.10
2019-05-21T06:26:43.647Z,43.70
2019-05-21T06:29:10.815Z,41.77
2019-05-21T06:31:37.877Z,37.40
2019-05-21T06:34:05.157Z,37.50
2019-05-21T06:36:32.208Z,42.40
2019-05-21T06:38:59.304Z,43.27
2019-05-21T06:41:26.359Z,45.80
2019-05-21T06:43:53.430Z,47.03
2019-05-21T06:46:20.571Z,40.70
2019-05-21T06:48:47.629Z,38.27
2019-05-21T06:51:14.681Z,29.93
2019-05-21T06:53:41.751Z,34.93
2019-05-21T06:56:08.912Z,27.83
2019-05-21T06:58:35.944Z,24.87
2019-05-21T07:01:03.193Z,31.65
2019-05-21T07:03:30.253Z,31.50
2019-05-21T07:05:59.207Z,33.37
2019-05-21T07:08:34.813Z,34.30
2019-05-21T07:10:55.243Z,36.00
2019-05-21T07:13:22.284Z,42.83
2019-05-21T07:15:49.445Z,41.40
2019-05-21T07:18:16.501Z,36.00
2019-05-21T07:20:43.576Z,35.67
2019-05-21T07:23:10.737Z,26.30
2019-05-21T07:25:37.788Z,30.53
2019-05-21T07:28:04.874Z,24.80
2019-05-21T07:30:31.928Z,27.13
2019-05-21T07:32:59.066Z,28.67
2019-05-21T07:35:26.176Z,30.60
2019-05-21T07:37:53.246Z,30.93
2019-05-21T07:40:20.515Z,35.70
2019-05-21T07:42:47.564Z,36.73
2019-05-21T07:45:14.833Z,40.33
2019-05-21T07:47:41.884Z,42.73
2019-05-21T07:50:09.175Z,42.53
2019-05-21T07:52:37.981Z,38.20
2019-05-21T07:55:05.440Z,37.37
2019-05-21T07:57:33.792Z,47.33
2019-05-21T08:00:00.857Z,43.00
2019-05-21T08:02:27.918Z,41.30
2019-05-21T08:04:55.023Z,41.17
2019-05-21T08:07:22.236Z,40.33
2019-05-21T08:09:49.786Z,38.90
2019-05-21T08:12:35.447Z,40.83
2019-05-21T08:14:45.996Z,40.50
2019-05-21T08:17:13.381Z,42.97
2019-05-21T08:19:40.441Z,39.13
2019-05-21T08:22:07.593Z,39.40
2019-05-21T08:24:34.647Z,48.20
2019-05-21T08:27:01.753Z,41.33
2019-05-21T08:29:28.887Z,42.53
2019-05-21T08:31:55.946Z,47.63
2019-05-21T08:34:23.011Z,43.73
2019-05-21T08:36:51.473Z,40.13
2019-05-21T08:39:28.142Z,37.70
2019-05-21T08:41:47.615Z,40.47
2019-05-21T08:44:14.669Z,35.33
2019-05-21T08:46:41.892Z,37.63
2019-05-21T08:49:08.962Z,37.13
2019-05-21T08:51:36.025Z,37.83
2019-05-21T08:54:03.301Z,37.63
2019-05-21T08:56:30.565Z,36.50
2019-05-21T08:58:57.628Z,35.63
2019-05-21T09:01:24.677Z,38.53
2019-05-21T09:03:51.777Z,40.73
2019-05-21T09:06:18.927Z,40.47
2019-05-21T09:08:46.004Z,41.73
2019-05-21T09:11:13.088Z,42.43
2019-05-21T09:13:40.252Z,38.63
2019-05-21T09:16:07.515Z,37.37
2019-05-21T09:18:34.569Z,33.10
2019-05-21T09:21:01.844Z,31.20
2019-05-21T09:23:28.911Z,31.70
2019-05-21T09:25:56.443Z,31.73
2019-05-21T09:28:23.603Z,38.60
2019-05-21T09:30:50.663Z,37.40
2019-05-21T09:33:17.832Z,39.67
2019-05-21T09:35:45.120Z,36.93
2019-05-21T09:38:12.186Z,41.17
2019-05-21T09:40:39.289Z,40.37
2019-05-21T09:43:06.417Z,44.10
2019-05-21T09:45:33.489Z,44.43
2019-05-21T09:48:00.571Z,45.87
2019-05-21T09:50:27.633Z,40.43
2019-05-21T09:52:54.684Z,39.87
2019-05-21T09:55:21.853Z,39.90
2019-05-21T09:58:01.633Z,43.80
2019-05-21T10:00:54.877Z,39.40
2019-05-21T10:03:24.072Z,37.77
2019-05-21T10:05:51.237Z,36.47
2019-05-21T10:08:18.296Z,34.47
2019-05-21T10:10:45.335Z,33.93
2019-05-21T10:13:12.419Z,33.67
2019-05-21T10:15:39.484Z,30.93
2019-05-21T10:18:06.654Z,33.37
2019-05-21T10:20:33.832Z,33.90
2019-05-21T10:23:00.976Z,31.00
2019-05-21T10:25:28.040Z,31.53
2019-05-21T10:27:55.131Z,34.43
2019-05-21T10:30:24.727Z,32.07
2019-05-21T10:32:52.371Z,32.07
2019-05-21T10:35:19.553Z,32.93
2019-05-21T10:37:54.677Z,33.93
2019-05-21T10:40:15.794Z,33.20
2019-05-21T10:42:42.945Z,33.00
2019-05-21T10:45:10.711Z,38.53
2019-05-21T10:47:37.776Z,31.50
2019-05-21T10:50:06.066Z,33.57
2019-05-21T10:52:33.128Z,36.27
2019-05-21T10:55:00.543Z,27.43
2019-05-21T10:57:27.751Z,22.83
2019-05-21T10:59:54.885Z,26.40
2019-05-21T11:02:28.792Z,24.03
2019-05-21T11:05:02.271Z,26.00
2019-05-21T11:07:29.522Z,25.63
2019-05-21T11:09:56.680Z,30.53
2019-05-21T11:12:24.288Z,29.37
2019-05-21T11:14:51.341Z,33.47
2019-05-21T11:17:19.116Z,36.63
2019-05-21T11:19:46.397Z,35.23
2019-05-21T11:22:13.455Z,31.57
2019-05-21T11:24:40.521Z,33.33
2019-05-21T11:27:07.768Z,28.30
2019-05-21T11:29:34.835Z,23.87
2019-05-21T11:32:02.106Z,22.07
2019-05-21T11:34:29.192Z,26.43
2019-05-21T11:36:56.265Z,26.30
2019-05-21T11:39:23.325Z,25.67
2019-05-21T11:41:51.692Z,22.97
2019-05-21T11:44:19.352Z,27.07
2019-05-21T11:46:46.765Z,26.63
2019-05-21T11:49:13.829Z,24.03
2019-05-21T11:51:40.897Z,21.90
2019-05-21T11:54:07.951Z,21.40
2019-05-21T11:56:36.495Z,20.87
2019-05-21T11:59:04.022Z,19.50
2019-05-21T12:01:31.068Z,19.53
2019-05-21T12:03:58.130Z,16.13
2019-05-21T12:06:25.283Z,15.03
2019-05-21T12:08:56.855Z,17.93
2019-05-21T12:11:21.617Z,16.80
2019-05-21T12:13:48.676Z,14.83
2019-05-21T12:16:16.956Z,14.83
2019-05-21T12:18:44.013Z,14.83
2019-05-21T12:21:11.084Z,15.17
2019-05-21T12:23:38.132Z,14.13
2019-05-21T12:26:05.221Z,14.60
2019-05-21T12:28:32.320Z,17.03
2019-05-21T12:30:59.400Z,15.33
2019-05-21T12:33:26.572Z,17.30
2019-05-21T12:35:53.832Z,14.17
2019-05-21T12:38:20.898Z,14.07
2019-05-21T12:40:47.957Z,14.23
2019-05-21T12:43:15.012Z,17.03
2019-05-21T12:45:42.277Z,14.80
2019-05-21T12:48:09.331Z,14.37
2019-05-21T12:50:36.420Z,14.03
2019-05-21T12:53:03.680Z,15.37
2019-05-21T12:55:30.836Z,14.60
2019-05-21T12:57:57.884Z,16.30
2019-05-21T13:00:28.676Z,13.83
2019-05-21T13:02:55.737Z,16.20
2019-05-21T13:05:22.797Z,14.63
2019-05-21T13:07:49.856Z,15.87
2019-05-21T13:10:17.127Z,14.43
2019-05-21T13:12:44.194Z,16.50
2019-05-21T13:15:11.455Z,15.33
2019-05-21T13:17:38.751Z,16.50
2019-05-21T13:20:07.332Z,15.50
2019-05-21T13:22:34.678Z,13.80
2019-05-21T13:25:01.807Z,13.53
2019-05-21T13:27:30.288Z,12.50
2019-05-21T13:29:58.948Z,14.17
2019-05-21T13:32:26.065Z,14.60
2019-05-21T13:34:53.172Z,14.67
2019-05-21T13:37:20.346Z,11.70
2019-05-21T13:39:50.408Z,15.77
2019-05-21T13:42:17.486Z,11.93
2019-05-21T13:44:44.560Z,17.03
2019-05-21T13:47:11.821Z,12.20
2019-05-21T13:49:38.909Z,12.57
2019-05-21T13:52:05.987Z,10.20
2019-05-21T13:54:33.152Z,10.40
2019-05-21T13:57:00.233Z,9.60
2019-05-21T13:59:27.316Z,11.60
2019-05-21T14:01:54.721Z,11.97
2019-05-21T14:04:21.977Z,9.33
2019-05-21T14:06:49.062Z,10.53
2019-05-21T14:09:16.135Z,14.10
2019-05-21T14:11:43.305Z,12.40
2019-05-21T14:14:10.490Z,10.63
2019-05-21T14:16:37.807Z,11.90
2019-05-21T14:19:04.996Z,11.77
2019-05-21T14:21:32.061Z,10.90
2019-05-21T14:23:59.153Z,13.03
2019-05-21T14:26:26.313Z,10.67
2019-05-21T14:28:53.384Z,11.20
2019-05-21T14:31:20.876Z,10.80
2019-05-21T14:33:47.940Z,13.33
2019-05-21T14:36:15.087Z,11.17
2019-05-21T14:38:43.464Z,11.37
2019-05-21T14:41:10.535Z,13.10
2019-05-21T14:43:37.588Z,10.80
2019-05-21T14:46:04.867Z,13.50
2019-05-21T14:48:51.563Z,14.77
2019-05-21T14:51:51.527Z,8.27
2019-05-21T14:54:26.812Z,8.87
2019-05-21T14:56:48.075Z,10.60
2019-05-21T14:59:15.619Z,8.93
2019-05-21T15:01:42.690Z,8.47
2019-05-21T15:04:09.823Z,10.70
2019-05-21T15:06:36.992Z,8.80
2019-05-21T15:09:05.275Z,8.53
2019-05-21T15:11:32.416Z,12.13
2019-05-21T15:13:59.569Z,8.50
2019-05-21T15:16:26.625Z,9.47
2019-05-21T15:18:53.760Z,10.07
2019-05-21T15:21:26.200Z,9.13
2019-05-21T15:23:53.265Z,11.27
2019-05-21T15:26:20.324Z,10.20
2019-05-21T15:28:47.513Z,11.80
2019-05-21T15:31:14.626Z,10.33
2019-05-21T15:33:41.690Z,9.27
2019-05-21T15:36:08.913Z,9.10
2019-05-21T15:38:49.476Z,9.13
2019-05-21T15:41:11.880Z,9.87
2019-05-21T15:43:33.968Z,10.33
2019-05-21T15:46:01.106Z,9.43
2019-05-21T15:48:28.271Z,9.87
2019-05-21T15:50:55.568Z,9.30
2019-05-21T15:53:22.721Z,11.07
2019-05-21T15:55:49.894Z,8.73
2019-05-21T15:58:17.029Z,9.37
2019-05-21T16:00:44.203Z,8.37
2019-05-21T16:03:11.361Z,9.93
2019-05-21T16:05:38.419Z,9.93
2019-05-21T16:08:05.470Z,10.63
2019-05-21T16:10:32.617Z,7.30
2019-05-21T16:12:59.681Z,10.57
2019-05-21T16:15:26.836Z,6.97
2019-05-21T16:17:53.893Z,8.07
2019-05-21T16:20:21.045Z,8.97
2019-05-21T16:22:48.093Z,7.37
2019-05-21T16:25:15.972Z,7.30
2019-05-21T16:27:43.125Z,6.93
2019-05-21T16:30:15.444Z,8.17
2019-05-21T16:32:42.601Z,9.57
2019-05-21T16:35:10.767Z,14.97
2019-05-21T16:37:37.828Z,11.33
2019-05-21T16:40:06.020Z,12.50
2019-05-21T16:42:33.274Z,10.53
2019-05-21T16:45:00.527Z,10.83
2019-05-21T16:47:43.888Z,10.07
2019-05-21T16:49:57.962Z,11.57
2019-05-21T16:52:25.172Z,11.50
2019-05-21T16:54:52.224Z,12.27
2019-05-21T16:57:19.383Z,13.50
2019-05-21T16:59:46.476Z,14.30
2019-05-21T17:02:13.753Z,12.93
2019-05-21T17:04:40.925Z,14.07
2019-05-21T17:07:07.984Z,10.13
2019-05-21T17:09:35.060Z,12.40
2019-05-21T17:12:02.104Z,13.37
2019-05-21T17:14:29.265Z,10.93
2019-05-21T17:16:56.335Z,12.07
2019-05-21T17:19:24.586Z,11.13
2019-05-21T17:21:51.636Z,11.53
2019-05-21T17:24:18.771Z,11.37
2019-05-21T17:26:46.120Z,10.10
2019-05-21T17:29:13.189Z,10.93
2019-05-21T17:31:40.268Z,13.30
2019-05-21T17:34:08.520Z,14.60
2019-05-21T17:36:35.584Z,17.33
2019-05-21T17:39:05.061Z,14.63
2019-05-21T17:41:32.236Z,16.40
2019-05-21T17:43:59.312Z,15.47
2019-05-21T17:46:26.503Z,13.97
2019-05-21T17:48:53.660Z,16.97
2019-05-21T17:51:20.740Z,13.57
2019-05-21T17:53:47.906Z,17.93
2019-05-21T17:56:14.965Z,13.50
2019-05-21T17:58:42.031Z,12.37
2019-05-21T18:01:10.108Z,12.77
2019-05-21T18:03:37.917Z,12.03
2019-05-21T18:06:06.696Z,11.07
2019-05-21T18:08:34.896Z,13.07
2019-05-21T18:11:02.180Z,13.23
2019-05-21T18:13:30.044Z,11.90
2019-05-21T18:15:57.456Z,13.17
2019-05-21T18:18:25.014Z,13.13
2019-05-21T18:20:52.625Z,12.30
2019-05-21T18:23:19.790Z,14.63
2019-05-21T18:25:47.520Z,12.80
2019-05-21T18:28:14.688Z,13.50
2019-05-21T18:30:42.393Z,13.50
2019-05-21T18:33:09.866Z,18.43
2019-05-21T18:35:37.028Z,13.37
2019-05-21T18:38:04.335Z,16.20
2019-05-21T18:40:31.680Z,17.23
2019-05-21T18:42:58.864Z,16.67
2019-05-21T18:45:26.027Z,14.87
2019-05-21T18:47:54.413Z,16.10
2019-05-21T18:50:34.894Z,14.40
2019-05-21T18:52:50.664Z,15.17
2019-05-21T18:55:17.838Z,17.03
2019-05-21T18:57:44.895Z,15.50
2019-05-21T19:00:14.069Z,16.37
2019-05-21T19:02:41.228Z,15.27
2019-05-21T19:05:08.854Z,15.90
2019-05-21T19:07:36.516Z,16.47
2019-05-21T19:10:05.432Z,15.77
2019-05-21T19:12:38.052Z,19.20
2019-05-21T19:15:05.705Z,15.47
2019-05-21T19:18:05.832Z,14.83
2019-05-21T19:20:33.112Z,20.10
2019-05-21T19:23:00.376Z,17.23
2019-05-21T19:25:27.536Z,14.57
2019-05-21T19:27:54.602Z,15.27
2019-05-21T19:30:24.207Z,17.90
2019-05-21T19:32:51.945Z,17.93
2019-05-21T19:35:19.001Z,17.93
2019-05-21T19:37:46.269Z,19.13
2019-05-21T19:40:14.841Z,18.27
2019-05-21T19:42:54.404Z,18.93
2019-05-21T19:45:11.327Z,19.47
2019-05-21T19:47:38.704Z,18.87
2019-05-21T19:50:06.627Z,19.20
2019-05-21T19:52:33.913Z,16.20
2019-05-21T19:57:13.723Z,21.67
2019-05-21T19:59:41.110Z,18.43
2019-05-21T20:02:09.241Z,20.70
2019-05-21T20:04:36.608Z,20.20
2019-05-21T20:07:07.056Z,18.73
2019-05-21T20:09:35.892Z,18.83
2019-05-21T20:12:05.791Z,21.43
2019-05-21T20:14:32.947Z,18.07
2019-05-21T20:17:02.414Z,18.47
2019-05-21T20:19:31.891Z,21.27
2019-05-21T20:21:59.496Z,20.60
2019-05-21T20:24:26.556Z,18.50
2019-05-21T20:26:53.905Z,22.13
2019-05-21T20:29:21.256Z,23.53
2019-05-21T20:31:48.864Z,20.50
2019-05-21T20:34:16.293Z,23.77
2019-05-21T20:36:44.164Z,23.67
2019-05-21T20:39:13.857Z,22.83
2019-05-21T20:41:41.504Z,20.27
2019-05-21T20:44:12.264Z,21.23
2019-05-21T20:46:40.967Z,19.60
2019-05-21T20:49:09.412Z,24.13
2019-05-21T20:51:36.706Z,21.47
2019-05-21T20:54:05.167Z,22.33
2019-05-21T20:56:33.251Z,19.77
2019-05-21T20:59:00.428Z,17.67
2019-05-21T21:01:27.584Z,20.57
2019-05-21T21:03:55.649Z,18.10
2019-05-21T21:06:34.753Z,14.63
2019-05-21T21:08:53.623Z,14.67
2019-05-21T21:11:20.775Z,15.47
2019-05-21T21:13:48.593Z,16.90
2019-05-21T21:16:15.884Z,17.47
2019-05-21T21:18:43.628Z,14.60
2019-05-21T21:21:11.504Z,16.40
2019-05-21T21:23:40.220Z,15.30
2019-05-21T21:26:08.189Z,15.73
2019-05-21T21:28:35.615Z,14.47
2019-05-21T21:31:04.819Z,14.97
2019-05-21T21:33:31.976Z,17.70
2019-05-21T21:35:59.149Z,17.50
2019-05-21T21:38:28.256Z,16.70
2019-05-21T21:40:55.391Z,17.70
2019-05-21T21:43:22.471Z,17.73
2019-05-21T21:45:49.949Z,17.43
2019-05-21T21:48:18.022Z,20.53
2019-05-21T21:51:06.613Z,20.33
2019-05-21T21:53:34.883Z,19.30
2019-05-21T21:56:02.171Z,20.00
2019-05-21T21:58:29.265Z,21.33
2019-05-21T22:01:27.485Z,20.60
2019-05-21T22:04:00.531Z,21.27
2019-05-21T22:06:30.924Z,22.70
2019-05-21T22:08:58.157Z,21.90
2019-05-21T22:11:25.577Z,23.40
2019-05-21T22:13:52.822Z,22.10
2019-05-21T22:16:20.688Z,22.57
2019-05-21T22:18:47.954Z,20.13
2019-05-21T22:21:16.404Z,22.23
2019-05-21T22:23:43.861Z,19.83
2019-05-21T22:26:10.908Z,20.93
2019-05-21T22:28:38.079Z,20.07
2019-05-21T22:31:05.235Z,19.57
2019-05-21T22:33:32.889Z,20.07
2019-05-21T22:36:00.139Z,20.77
2019-05-21T22:38:27.568Z,20.53
2019-05-21T22:40:54.732Z,18.17
2019-05-21T22:43:21.897Z,18.90
2019-05-21T22:45:49.166Z,18.63
2019-05-21T22:48:16.414Z,18.67
2019-05-21T22:50:43.467Z,17.67
2019-05-21T22:53:10.529Z,21.30
2019-05-21T22:55:37.584Z,21.43
2019-05-21T22:58:05.158Z,23.20
2019-05-21T23:00:32.343Z,23.07
2019-05-21T23:02:59.917Z,19.67
2019-05-21T23:05:27.084Z,21.67
2019-05-21T23:07:54.144Z,20.43
2019-05-21T23:10:22.692Z,21.60
2019-05-21T23:12:49.761Z,21.90
2019-05-21T23:15:25.112Z,21.53
2019-05-21T23:18:05.401Z,21.10
2019-05-21T23:20:40.997Z,22.80
2019-05-21T23:23:10.358Z,21.53
2019-05-21T23:25:40.607Z,19.73
2019-05-21T23:28:08.891Z,19.77
2019-05-21T23:30:36.360Z,14.87
2019-05-21T23:33:06.091Z,14.80
2019-05-21T23:35:34.632Z,13.33
2019-05-21T23:38:02.852Z,16.93
2019-05-21T23:40:30.716Z,15.90
2019-05-21T23:42:58.487Z,15.17
2019-05-21T23:45:25.749Z,17.60
2019-05-21T23:47:52.808Z,18.23
2019-05-21T23:50:20.188Z,18.40
2019-05-21T23:52:48.318Z,20.37
2019-05-21T23:55:15.603Z,20.67
2019-05-21T23:57:43.269Z,20.50
